Photometre #849[NE_1.6_Dp] Lille AOT

File : 20220923_849.hum

23/09/2022,07:14:48,TEMP=9.8,BA=5.68,STAT.A,ExtBa=12.30
23/09/2022,07:19:19,TEMP=9.9,BA=5.68,STAT.A,ExtBa=12.30
23/09/2022,07:24:37,TEMP=9.9,BA=5.64,STAT.A,ExtBa=12.30
23/09/2022,07:30:56,TEMP=10.1,BA=5.68,STAT.A,ExtBa=12.20
23/09/2022,07:38:36,TEMP=10.4,BA=5.68,STAT.A,ExtBa=12.20
23/09/2022,07:48:05,TEMP=10.8,BA=5.64,STAT.A,ExtBa=12.20
23/09/2022,08:00:11,TEMP=10.9,BA=5.64,STAT.B,ExtBa=12.30
23/09/2022,08:13:55,TEMP=12.3,BA=5.60,STAT.A,ExtBa=12.10
23/09/2022,08:15:59,TEMP=12.5,BA=5.60,STAT.A,ExtBa=12.10
23/09/2022,08:20:02,TEMP=12.4,BA=5.60,STAT.A,ExtBa=12.10
23/09/2022,08:28:36,TEMP=13.0,BA=5.64,STAT.A,ExtBa=12.20
23/09/2022,08:38:35,TEMP=14.0,BA=5.64,STAT.C,ExtBa=12.20
23/09/2022,09:15:44,TEMP=16.4,BA=5.56,STAT.A,ExtBa=12.10
23/09/2022,09:17:43,TEMP=16.2,BA=5.56,STAT.A,ExtBa=12.10
23/09/2022,09:19:48,TEMP=16.0,BA=5.56,STAT.F,ExtBa=12.10
23/09/2022,09:33:57,TEMP=13.5,BA=5.64,STAT.D,ExtBa=12.10
23/09/2022,09:48:57,TEMP=13.7,BA=5.64,STAT.D,ExtBa=12.10
23/09/2022,10:03:58,TEMP=14.1,BA=5.64,STAT.D,ExtBa=12.10
23/09/2022,10:18:59,TEMP=15.4,BA=5.64,STAT.F,ExtBa=12.20
23/09/2022,11:01:49,TEMP=17.6,BA=5.56,STAT.D,ExtBa=12.10
23/09/2022,11:03:47,TEMP=17.8,BA=5.56,STAT.D,ExtBa=12.10
23/09/2022,11:05:50,TEMP=17.7,BA=5.56,STAT.D,ExtBa=12.10
23/09/2022,11:18:59,TEMP=16.4,BA=5.64,STAT.F,ExtBa=12.10
23/09/2022,11:34:10,TEMP=18.3,BA=5.52,STAT.D,ExtBa=12.10
23/09/2022,11:48:58,TEMP=14.4,BA=5.64,STAT.D,ExtBa=12.10
23/09/2022,12:03:58,TEMP=12.5,BA=5.64,STAT.D,ExtBa=12.10
23/09/2022,12:19:00,TEMP=13.1,BA=5.64,STAT.F,ExtBa=12.10
23/09/2022,12:33:58,TEMP=13.6,BA=5.64,STAT.D,ExtBa=12.10
23/09/2022,12:48:58,TEMP=14.1,BA=5.64,STAT.D,ExtBa=12.10
23/09/2022,13:03:58,TEMP=15.0,BA=5.64,STAT.D,ExtBa=12.10
23/09/2022,13:18:59,TEMP=16.0,BA=5.64,STAT.F,ExtBa=12.10
23/09/2022,13:33:58,TEMP=17.5,BA=5.56,STAT.D,ExtBa=12.10
23/09/2022,13:48:58,TEMP=16.1,BA=5.64,STAT.D,ExtBa=12.10
23/09/2022,14:03:58,TEMP=16.0,BA=5.64,STAT.D,ExtBa=12.10
23/09/2022,14:18:59,TEMP=15.9,BA=5.64,STAT.F,ExtBa=12.10
23/09/2022,14:33:58,TEMP=14.6,BA=5.64,STAT.D,ExtBa=12.10
23/09/2022,14:48:58,TEMP=13.9,BA=5.64,STAT.D,ExtBa=12.10
23/09/2022,15:03:57,TEMP=14.7,BA=5.64,STAT.D,ExtBa=12.10
23/09/2022,15:18:59,TEMP=16.0,BA=5.64,STAT.F,ExtBa=12.10
23/09/2022,15:57:45,TEMP=17.1,BA=5.56,STAT.A,ExtBa=12.10
23/09/2022,15:59:53,TEMP=17.1,BA=5.56,STAT.A,ExtBa=12.10
23/09/2022,16:01:53,TEMP=17.1,BA=5.56,STAT.C,ExtBa=12.10
23/09/2022,16:40:26,TEMP=16.0,BA=5.52,STAT.A,ExtBa=12.10
23/09/2022,16:42:19,TEMP=15.7,BA=5.52,STAT.A,ExtBa=12.10
23/09/2022,16:44:12,TEMP=15.4,BA=5.52,STAT.A,ExtBa=12.10
23/09/2022,16:46:17,TEMP=15.1,BA=5.52,STAT.A,ExtBa=12.10
23/09/2022,16:48:19,TEMP=14.9,BA=5.52,STAT.B,ExtBa=12.10
23/09/2022,17:02:26,TEMP=14.8,BA=5.52,STAT.A,ExtBa=12.00
23/09/2022,17:04:25,TEMP=14.9,BA=5.52,STAT.A,ExtBa=12.10
23/09/2022,17:07:00,TEMP=14.9,BA=5.52,STAT.A,ExtBa=12.10
23/09/2022,17:13:19,TEMP=14.6,BA=5.64,STAT.A,ExtBa=12.10
23/09/2022,17:18:37,TEMP=14.8,BA=5.64,STAT.A,ExtBa=12.10
23/09/2022,17:23:08,TEMP=14.8,BA=5.56,STAT.A,ExtBa=12.10